Time;durP1;ratioP1;P1;durP2;ratioP2;P2;SDS_P1;SDS_P2;PMS_P1;PMS_P2;Temp;Humidity;BMP_temperature;BMP_pressure;BME280_temperature;BME280_humidity;BME280_pressure;Samples;Min_cycle;Max_cycle;Signal;HPM_P1;HPM_P2
2023/10/09 00:01:26;;;;;;;;;1.00;1.00;;;;;23.02;42.48;101643.79;109612;1252;19695;-36
2023/10/09 00:03:55;;;;;;;;;1.50;1.50;;;;;22.99;42.44;101636.94;109529;1261;20036;-37
2023/10/09 00:06:30;;;;;;;;;1.00;1.00;;;;;23.02;42.37;101628.77;109621;1252;20789;-37
2023/10/09 00:08:58;;;;;;;;;2.00;2.00;;;;;23.04;42.45;101628.72;109604;1252;19620;-37
2023/10/09 00:11:41;;;;;;;;;2.00;2.00;;;;;23.02;42.22;101628.98;109614;1268;18684;-38
2023/10/09 00:14:09;;;;;;;;;1.00;1.00;;;;;23.01;42.16;101629.95;109577;1268;19340;-37
2023/10/09 00:16:40;;;;;;;;;2.00;2.00;;;;;23.01;42.28;101624.55;109571;1268;20003;-37
2023/10/09 00:19:17;;;;;;;;;2.00;2.00;;;;;23.01;42.34;101624.65;109716;1253;20108;-37
2023/10/09 00:21:44;;;;;;;;;4.00;2.00;;;;;23.01;42.09;101623.40;109576;1252;20747;-38
2023/10/09 00:24:16;;;;;;;;;1.00;1.00;;;;;23.00;42.34;101616.62;109585;1253;22149;-36
2023/10/09 00:26:45;;;;;;;;;1.00;1.00;;;;;22.98;42.12;101606.50;109627;1268;18615;-36
2023/10/09 00:29:21;;;;;;;;;1.00;1.00;;;;;22.99;41.99;101604.80;109577;1268;19339;-37
2023/10/09 00:32:07;;;;;;;;;2.00;2.00;;;;;22.98;42.26;101608.73;109578;1252;19748;-36
2023/10/09 00:34:39;;;;;;;;;1.00;1.00;;;;;22.99;42.07;101605.69;109603;1268;20479;-37
2023/10/09 00:37:10;;;;;;;;;1.00;1.00;;;;;22.99;42.13;101594.58;109613;1268;19283;-37
2023/10/09 00:39:43;;;;;;;;;2.00;2.00;;;;;23.01;42.14;101584.00;109605;1252;18242;-37
2023/10/09 00:42:14;;;;;;;;;1.50;1.50;;;;;23.00;42.09;101578.36;109597;1252;20059;-37
2023/10/09 00:44:42;;;;;;;;;2.00;2.00;;;;;23.00;41.95;101575.20;109608;1268;19514;-36
2023/10/09 00:47:22;;;;;;;;;1.00;1.00;;;;;22.99;41.75;101567.92;109605;1253;19713;-37
2023/10/09 00:49:49;;;;;;;;;1.00;1.00;;;;;23.01;41.84;101570.88;109625;1252;18715;-37
2023/10/09 00:52:26;;;;;;;;;2.00;2.00;;;;;22.99;41.83;101579.06;109568;1252;20968;-37
2023/10/09 00:54:53;;;;;;;;;2.00;2.00;;;;;23.00;41.61;101583.23;109616;1268;18531;-38
2023/10/09 00:57:24;;;;;;;;;2.00;2.00;;;;;22.99;41.81;101581.04;109582;1268;19997;-38
2023/10/09 00:59:59;;;;;;;;;4.00;4.00;;;;;23.00;41.89;101578.58;109632;1252;20870;-36
2023/10/09 01:02:35;;;;;;;;;1.00;1.00;;;;;23.01;41.75;101578.80;109590;1252;19979;-37
2023/10/09 01:05:10;;;;;;;;;1.00;1.00;;;;;23.02;41.45;101573.67;109609;1261;19821;-38
2023/10/09 01:07:39;;;;;;;;;1.00;1.00;;;;;23.01;41.74;101560.55;109668;1252;20712;-37
2023/10/09 01:10:35;;;;;;;;;1.50;1.50;;;;;23.00;41.90;101555.25;109604;1252;19608;-37
2023/10/09 01:12:55;;;;;;;;;1.50;1.50;;;;;23.01;41.82;101559.84;109577;1252;22330;-38
2023/10/09 01:15:43;;;;;;;;;1.00;1.00;;;;;23.00;41.69;101557.59;109583;1252;20759;-37
2023/10/09 01:18:12;;;;;;;;;2.00;2.00;;;;;23.00;41.74;101556.55;109559;1253;19671;-36
2023/10/09 01:20:45;;;;;;;;;2.00;1.00;;;;;23.01;41.44;101554.33;109584;1262;20017;-38
2023/10/09 01:23:12;;;;;;;;;1.00;1.00;;;;;23.01;41.56;101548.37;109618;1260;20752;-38
2023/10/09 01:25:49;;;;;;;;;2.00;2.00;;;;;23.01;41.35;101556.13;109596;1252;19640;-37
2023/10/09 01:28:17;;;;;;;;;1.00;1.00;;;;;23.02;41.45;101564.55;109583;1252;20142;-37
2023/10/09 01:30:47;;;;;;;;;1.00;1.00;;;;;23.00;41.73;101561.48;109588;1252;20857;-38
2023/10/09 01:33:17;;;;;;;;;1.00;1.00;;;;;23.01;41.35;101558.42;109560;1252;19645;-37
2023/10/09 01:35:48;;;;;;;;;1.00;1.00;;;;;22.99;41.55;101543.71;109643;1260;20027;-36
2023/10/09 01:38:16;;;;;;;;;1.00;1.00;;;;;22.99;41.62;101539.17;109639;1252;20757;-37
2023/10/09 01:40:44;;;;;;;;;1.00;1.00;;;;;22.99;41.39;101538.35;109593;1252;20024;-37
2023/10/09 01:43:13;;;;;;;;;1.00;1.00;;;;;22.99;41.68;101541.69;109569;1268;20191;-37
2023/10/09 01:45:43;;;;;;;;;2.00;1.50;;;;;22.98;41.48;101544.42;109562;1252;20793;-37
2023/10/09 01:48:12;;;;;;;;;2.00;2.00;;;;;22.99;41.63;101546.16;109599;1252;22734;-37
2023/10/09 01:50:41;;;;;;;;;2.00;1.00;;;;;22.99;41.49;101546.39;109585;1268;18633;-37
2023/10/09 01:53:09;;;;;;;;;1.00;1.00;;;;;23.00;41.31;101544.32;109592;1253;20621;-37
2023/10/09 01:55:39;;;;;;;;;2.00;2.00;;;;;23.00;41.34;101543.44;109585;1253;19723;-36
2023/10/09 01:58:08;;;;;;;;;5.00;4.00;;;;;22.98;41.56;101546.93;109575;1252;20195;-38
2023/10/09 02:00:42;;;;;;;;;1.00;1.00;;;;;23.00;41.32;101549.72;109587;1252;20905;-37
2023/10/09 02:03:23;;;;;;;;;2.00;2.00;;;;;22.99;41.58;101553.43;109578;1252;19645;-36
2023/10/09 02:05:51;;;;;;;;;2.00;2.00;;;;;23.00;41.39;101549.73;109596;1268;18700;-37
2023/10/09 02:08:21;;;;;;;;;2.00;1.00;;;;;22.99;41.30;101549.89;109568;1268;19393;-37
2023/10/09 02:10:49;;;;;;;;;1.00;1.00;;;;;22.98;41.58;101542.77;109604;1252;19701;-37
2023/10/09 02:13:17;;;;;;;;;1.33;1.00;;;;;22.98;41.34;101543.27;109549;1252;22179;-37
2023/10/09 02:15:58;;;;;;;;;2.00;2.00;;;;;23.00;41.28;101543.98;109608;1268;19738;-36
2023/10/09 02:18:39;;;;;;;;;2.00;2.00;;;;;22.98;41.30;101541.79;109567;1252;20528;-37
2023/10/09 02:21:13;;;;;;;;;1.00;1.00;;;;;22.97;41.38;101541.40;109539;1268;18573;-38
2023/10/09 02:23:40;;;;;;;;;2.00;2.00;;;;;22.98;41.34;101538.52;109676;1254;20838;-35
2023/10/09 02:26:08;;;;;;;;;1.00;1.00;;;;;22.97;41.19;101541.95;109640;1268;18613;-36
2023/10/09 02:28:36;;;;;;;;;1.67;1.00;;;;;22.96;41.18;101541.02;109605;1268;18758;-37
2023/10/09 02:31:09;;;;;;;;;1.50;1.50;;;;;22.96;41.25;101537.79;109594;1253;21769;-38
2023/10/09 02:33:38;;;;;;;;;1.50;1.50;;;;;22.96;41.17;101534.80;109575;1268;21924;-36
2023/10/09 02:36:06;;;;;;;;;2.00;1.00;;;;;22.97;41.30;101526.44;109602;1268;19992;-36
2023/10/09 02:38:35;;;;;;;;;1.00;1.00;;;;;22.98;41.34;101519.11;109597;1268;21444;-37
2023/10/09 02:43:46;;;;;;;;;1.00;1.00;;;;;22.97;41.22;101508.40;109592;1268;20004;-36
2023/10/09 02:46:17;;;;;;;;;1.00;1.00;;;;;22.97;41.02;101515.13;109619;1268;19410;-37
2023/10/09 02:48:50;;;;;;;;;2.00;1.00;;;;;22.95;41.18;101510.58;109593;1268;19629;-37
2023/10/09 02:51:30;;;;;;;;;4.00;4.00;;;;;22.95;41.14;101506.48;109592;1268;20057;-37
2023/10/09 02:53:58;;;;;;;;;1.00;1.00;;;;;22.94;41.06;101502.91;109580;1268;20894;-37
2023/10/09 02:56:36;;;;;;;;;1.00;1.00;;;;;22.93;41.05;101500.63;109600;1252;22728;-38
2023/10/09 02:59:08;;;;;;;;;2.00;1.50;;;;;22.94;41.15;101491.51;109584;1260;18611;-37
2023/10/09 03:01:37;;;;;;;;;1.00;1.00;;;;;22.98;41.21;101488.84;109591;1253;20848;-36
2023/10/09 03:04:05;;;;;;;;;1.00;1.00;;;;;22.93;41.28;101480.58;109580;1253;22012;-36
2023/10/09 03:06:33;;;;;;;;;1.00;1.00;;;;;22.95;40.97;101477.14;109597;1268;20035;-36
2023/10/09 03:09:01;;;;;;;;;1.50;1.50;;;;;22.95;41.25;101474.52;109590;1254;20684;-36
2023/10/09 03:11:32;;;;;;;;;1.00;1.00;;;;;22.92;41.26;101469.42;109595;1268;19625;-36
2023/10/09 03:13:59;;;;;;;;;1.50;1.50;;;;;22.93;41.17;101459.48;109621;1268;20429;-37
2023/10/09 03:16:27;;;;;;;;;2.00;2.00;;;;;22.93;41.25;101453.14;109651;1262;20950;-36
2023/10/09 03:18:54;;;;;;;;;1.00;1.00;;;;;22.92;40.97;101451.66;109728;1254;19705;-37
2023/10/09 03:21:21;;;;;;;;;2.00;2.00;;;;;22.91;41.05;101451.23;109591;1268;18670;-39
2023/10/09 03:23:49;;;;;;;;;2.00;2.00;;;;;22.92;41.18;101451.12;109624;1254;19455;-37
2023/10/09 03:26:17;;;;;;;;;4.00;2.00;;;;;22.92;41.18;101452.54;109620;1252;19573;-38
2023/10/09 03:28:45;;;;;;;;;1.00;1.00;;;;;22.90;41.15;101454.34;109621;1252;18669;-37
2023/10/09 03:31:12;;;;;;;;;1.00;1.00;;;;;22.93;41.09;101449.53;109586;1253;20827;-37
2023/10/09 03:33:39;;;;;;;;;1.00;1.00;;;;;22.94;41.16;101448.39;109567;1252;18439;-37
2023/10/09 03:36:09;;;;;;;;;2.00;2.00;;;;;22.93;41.06;101447.79;109586;1268;19880;-38
2023/10/09 03:38:36;;;;;;;;;1.00;1.00;;;;;22.94;40.98;101442.00;109557;1253;21231;-37
2023/10/09 03:41:06;;;;;;;;;1.00;1.00;;;;;22.94;41.12;101439.38;109605;1252;19587;-37
2023/10/09 03:43:37;;;;;;;;;2.00;2.00;;;;;22.91;41.11;101430.63;109581;1254;20218;-36
2023/10/09 03:46:05;;;;;;;;;1.00;1.00;;;;;22.93;41.02;101423.26;109595;1260;20710;-37
2023/10/09 03:48:36;;;;;;;;;2.00;2.00;;;;;22.92;40.95;101420.90;109567;1268;18324;-37
2023/10/09 03:51:11;;;;;;;;;4.00;2.00;;;;;22.92;41.16;101413.08;109619;1252;20084;-36
2023/10/09 03:53:39;;;;;;;;;1.00;1.00;;;;;22.93;40.91;101408.50;109601;1254;21357;-37
2023/10/09 03:56:11;;;;;;;;;1.00;1.00;;;;;22.93;40.78;101399.81;109627;1253;18511;-37
2023/10/09 03:58:39;;;;;;;;;1.00;1.00;;;;;22.92;41.01;101391.13;109616;1252;18631;-36
2023/10/09 04:01:07;;;;;;;;;1.00;1.00;;;;;22.91;40.97;101390.73;109632;1268;20929;-37
2023/10/09 04:03:36;;;;;;;;;2.67;1.00;;;;;22.93;40.88;101373.36;109612;1253;18258;-37
2023/10/09 04:06:05;;;;;;;;;5.00;5.00;;;;;22.93;41.11;101370.48;109572;1252;20074;-37
2023/10/09 04:08:33;;;;;;;;;1.00;1.00;;;;;22.93;41.01;101375.77;109588;1261;20750;-36
2023/10/09 04:11:03;;;;;;;;;2.00;2.00;;;;;22.91;40.84;101372.43;109611;1252;19687;-38
2023/10/09 04:13:34;;;;;;;;;2.00;2.00;;;;;22.89;40.75;101368.98;109646;1253;20515;-37
2023/10/09 04:16:09;;;;;;;;;1.00;1.00;;;;;22.90;41.08;101367.95;109585;1253;22329;-37
2023/10/09 04:18:38;;;;;;;;;2.00;2.00;;;;;22.92;41.10;101374.52;109599;1252;19727;-37
2023/10/09 04:21:18;;;;;;;;;2.00;2.00;;;;;22.91;40.98;101376.86;109622;1252;20081;-37
2023/10/09 04:24:09;;;;;;;;;2.00;2.00;;;;;22.89;41.03;101371.33;109612;1252;20779;-38
2023/10/09 04:26:37;;;;;;;;;3.50;2.00;;;;;22.89;40.92;101367.18;109608;1252;19655;-38
2023/10/09 04:29:06;;;;;;;;;2.00;2.00;;;;;22.89;40.86;101361.88;109619;1252;20183;-38
2023/10/09 04:31:37;;;;;;;;;1.00;1.00;;;;;22.87;40.82;101357.77;109596;1268;19606;-37
2023/10/09 04:34:23;;;;;;;;;1.00;1.00;;;;;22.87;41.14;101358.98;109574;1252;19687;-38
2023/10/09 04:36:51;;;;;;;;;1.00;1.00;;;;;22.88;41.04;101357.34;109628;1268;18915;-38
2023/10/09 04:39:46;;;;;;;;;1.00;1.00;;;;;22.88;40.84;101357.62;109574;1268;19339;-37
2023/10/09 04:42:26;;;;;;;;;2.00;2.00;;;;;22.87;41.14;101357.45;109549;1253;19620;-36
2023/10/09 04:47:39;;;;;;;;;2.00;2.00;;;;;22.86;41.06;101348.49;109599;1254;20822;-38
2023/10/09 04:50:08;;;;;;;;;2.00;2.00;;;;;22.85;40.87;101342.91;109555;1268;19482;-38
2023/10/09 04:52:53;;;;;;;;;2.00;2.00;;;;;22.85;41.22;101343.30;109633;1268;18573;-37
2023/10/09 04:55:24;;;;;;;;;2.00;2.00;;;;;22.83;43.52;101342.91;109577;1254;23474;-37
2023/10/09 04:58:02;;;;;;;;;1.00;1.00;;;;;22.87;44.01;101336.97;109604;1254;19719;-37
2023/10/09 05:00:46;;;;;;;;;2.00;2.00;;;;;22.87;44.64;101332.65;109589;1254;20248;-37
2023/10/09 05:03:25;;;;;;;;;2.67;2.67;;;;;22.86;44.10;101329.80;109588;1254;20837;-37
2023/10/09 05:05:59;;;;;;;;;2.00;2.00;;;;;22.90;44.31;101338.34;109569;1254;22765;-37
2023/10/09 05:08:29;;;;;;;;;2.00;2.00;;;;;22.95;45.02;101337.58;109639;1262;22674;-37
2023/10/09 05:11:15;;;;;;;;;2.00;2.00;;;;;22.96;45.76;101332.39;109565;1253;22260;-38
2023/10/09 05:13:57;;;;;;;;;1.00;1.00;;;;;23.01;45.52;101334.20;109592;1268;18423;-37
2023/10/09 05:16:26;;;;;;;;;2.00;2.00;;;;;22.98;45.20;101334.96;109601;1262;20252;-36
2023/10/09 05:18:56;;;;;;;;;1.00;1.00;;;;;23.01;45.12;101331.91;109728;1267;19418;-36
2023/10/09 05:21:36;;;;;;;;;2.00;2.00;;;;;22.96;45.31;101326.33;109576;1252;19723;-36
2023/10/09 05:24:23;;;;;;;;;1.00;1.00;;;;;22.97;44.99;101324.52;109595;1268;18651;-38
2023/10/09 05:27:12;;;;;;;;;2.00;2.00;;;;;22.94;44.96;101322.23;109594;1262;22282;-38
2023/10/09 05:29:59;;;;;;;;;1.00;1.00;;;;;22.93;44.78;101326.65;109554;1252;19669;-38
2023/10/09 05:32:29;;;;;;;;;2.00;2.00;;;;;22.98;44.73;101326.61;109592;1252;20009;-38
2023/10/09 05:35:15;;;;;;;;;2.00;2.00;;;;;22.97;44.59;101325.23;109611;1252;20772;-38
2023/10/09 05:37:45;;;;;;;;;1.00;1.00;;;;;22.95;44.12;101328.95;109570;1268;21062;-37
2023/10/09 05:40:23;;;;;;;;;1.50;1.50;;;;;22.95;44.27;101331.30;109609;1254;20122;-37
2023/10/09 05:43:02;;;;;;;;;1.00;1.00;;;;;22.92;44.18;101336.48;109557;1261;20628;-37
2023/10/09 06:05:41;;;;;;;;;2.00;2.00;;;;;22.87;44.46;101323.20;108616;1278;17754;-38
2023/10/09 06:08:12;;;;;;;;;3.00;3.00;;;;;22.92;44.44;101321.34;108661;1270;19773;-37
2023/10/09 06:10:41;;;;;;;;;2.00;2.00;;;;;22.90;44.53;101320.86;108584;1264;143729;-37
2023/10/09 06:13:37;;;;;;;;;2.00;2.00;;;;;22.88;44.82;101316.05;108786;1270;19108;-37
2023/10/09 06:18:43;;;;;;;;;2.00;2.00;;;;;22.86;44.63;101317.08;108755;1261;21008;-36
2023/10/09 06:21:39;;;;;;;;;2.00;2.00;;;;;22.87;44.36;101307.58;109778;1254;19238;-35
2023/10/09 06:24:16;;;;;;;;;2.00;2.00;;;;;22.86;44.14;101304.79;109669;1267;18438;-37
2023/10/09 06:26:52;;;;;;;;;1.00;1.00;;;;;22.89;44.20;101303.30;109637;1254;19675;-37
2023/10/09 06:29:34;;;;;;;;;1.33;1.00;;;;;22.87;44.12;101305.88;109649;1268;17816;-37
2023/10/09 06:35:15;;;;;;;;;10.00;10.00;;;;;22.92;43.88;101302.34;106983;1302;18916;-37
2023/10/09 06:43:08;;;;;;;;;1.00;1.00;;;;;22.94;43.46;101303.92;108756;1277;17837;-38
2023/10/09 06:45:44;;;;;;;;;2.00;1.00;;;;;22.94;43.45;101297.31;108709;1264;19764;-37
2023/10/09 06:51:07;;;;;;;;;1.67;1.67;;;;;22.93;43.06;101295.17;108627;1261;19654;-38
2023/10/09 06:56:26;;;;;;;;;1.50;1.50;;;;;22.92;43.06;101286.65;108584;1267;18241;-38
2023/10/09 06:58:55;;;;;;;;;2.00;2.00;;;;;22.91;43.08;101288.08;108610;1260;19197;-38
2023/10/09 07:01:39;;;;;;;;;1.67;1.67;;;;;22.89;43.02;101281.14;108608;1262;19868;-37
2023/10/09 07:04:18;;;;;;;;;2.00;2.00;;;;;22.87;43.16;101279.33;108666;1260;19911;-38
2023/10/09 07:06:56;;;;;;;;;2.00;2.00;;;;;22.85;43.08;101284.02;108657;1269;19072;-37
2023/10/09 07:09:27;;;;;;;;;1.50;1.50;;;;;22.84;43.25;101286.54;108664;1269;19721;-38
2023/10/09 07:11:59;;;;;;;;;1.00;1.00;;;;;22.78;43.31;101287.00;108718;1270;19505;-38
2023/10/09 07:17:21;;;;;;;;;2.00;2.00;;;;;22.86;43.45;101293.31;108792;1264;20922;-38
2023/10/09 07:22:39;;;;;;;;;2.00;2.00;;;;;22.86;45.11;101294.18;108457;1272;20279;-37
2023/10/09 07:25:14;;;;;;;;;2.00;2.00;;;;;22.89;44.96;101292.17;108549;1279;19788;-38
2023/10/09 07:27:46;;;;;;;;;4.00;2.00;;;;;22.94;44.64;101289.38;108572;1279;19916;-38
2023/10/09 07:32:55;;;;;;;;;2.00;2.00;;;;;22.98;44.45;101294.74;109388;1271;19233;-36
2023/10/09 07:35:46;;;;;;;;;4.00;4.00;;;;;22.96;44.68;101289.94;109383;1272;21553;-37
2023/10/09 07:38:14;;;;;;;;;1.00;1.00;;;;;22.98;44.45;101287.31;109405;1264;19157;-37
2023/10/09 07:40:55;;;;;;;;;2.00;2.00;;;;;22.99;44.04;101286.82;109363;1257;21721;-36
2023/10/09 07:43:27;;;;;;;;;2.00;2.00;;;;;22.95;44.14;101293.65;109389;1256;21824;-38
2023/10/09 07:48:52;;;;;;;;;2.00;2.00;;;;;22.95;44.13;101301.52;108750;1261;19873;-38
2023/10/09 07:51:22;;;;;;;;;2.00;2.00;;;;;22.95;44.18;101313.59;108782;1261;19689;-37
2023/10/09 07:53:56;;;;;;;;;2.00;2.00;;;;;22.93;44.16;101326.80;108799;1276;17834;-38
2023/10/09 07:56:24;;;;;;;;;2.00;2.00;;;;;22.89;44.34;101332.21;108780;1274;18408;-38
2023/10/09 07:58:51;;;;;;;;;3.00;3.00;;;;;22.89;44.09;101332.11;108752;1266;21392;-37
2023/10/09 08:01:34;;;;;;;;;1.00;1.00;;;;;22.84;44.30;101336.30;108713;1267;20183;-38
2023/10/09 08:04:05;;;;;;;;;3.00;2.00;;;;;22.87;44.35;101338.77;109191;1256;19906;-37
2023/10/09 08:06:38;;;;;;;;;2.00;2.00;;;;;22.91;44.34;101333.59;109226;1255;19932;-38
2023/10/09 08:09:28;;;;;;;;;2.00;2.00;;;;;22.89;44.26;101333.20;109114;1255;19340;-37
2023/10/09 08:12:13;;;;;;;;;2.00;2.00;;;;;22.87;44.24;101324.56;109131;1255;19887;-37
2023/10/09 08:14:45;;;;;;;;;2.00;2.00;;;;;22.94;43.92;101320.42;109138;1255;18350;-37
2023/10/09 08:17:15;;;;;;;;;1.00;1.00;;;;;22.98;44.08;101319.77;109137;1271;17811;-38
2023/10/09 08:19:56;;;;;;;;;2.00;2.00;;;;;22.97;44.13;101318.35;109057;1270;19131;-37
2023/10/09 08:22:44;;;;;;;;;3.00;3.00;;;;;22.92;44.14;101319.98;109316;1270;21828;-37
2023/10/09 08:25:26;;;;;;;;;2.00;2.00;;;;;22.92;44.12;101323.80;110182;1266;17977;-38
2023/10/09 08:27:57;;;;;;;;;2.00;2.00;;;;;22.90;44.15;101319.88;110101;1266;21924;-37
2023/10/09 08:30:40;;;;;;;;;1.00;1.00;;;;;22.89;43.89;101314.36;110168;1251;19673;-37
2023/10/09 08:35:55;;;;;;;;;2.00;2.00;;;;;22.86;43.90;101306.05;110263;1251;19910;-38
2023/10/09 08:38:24;;;;;;;;;1.00;1.00;;;;;22.86;43.63;101299.10;110226;1264;18332;-38
2023/10/09 08:40:54;;;;;;;;;4.00;2.00;;;;;22.88;43.61;101283.75;110228;1265;17796;-38
2023/10/09 08:43:21;;;;;;;;;4.00;4.00;;;;;22.88;43.73;101283.70;110228;1264;19707;-38
2023/10/09 08:45:51;;;;;;;;;2.00;2.00;;;;;22.88;43.77;101278.56;110219;1265;18778;-37
2023/10/09 08:48:19;;;;;;;;;2.00;2.00;;;;;22.89;43.41;101280.52;110202;1264;17786;-38
2023/10/09 08:50:49;;;;;;;;;2.00;2.00;;;;;22.89;43.33;101287.63;110200;1264;19770;-38
2023/10/09 08:53:17;;;;;;;;;2.00;2.00;;;;;22.88;43.61;101282.33;110203;1259;19931;-38
2023/10/09 08:55:44;;;;;;;;;1.33;1.33;;;;;22.84;44.00;101273.09;110242;1251;19207;-38
2023/10/09 08:58:19;;;;;;;;;2.00;2.00;;;;;22.84;43.94;101269.65;110213;1265;18389;-38
2023/10/09 09:00:46;;;;;;;;;4.00;4.00;;;;;22.88;44.07;101277.69;110207;1251;19662;-38
2023/10/09 09:03:16;;;;;;;;;4.00;4.00;;;;;22.88;43.95;101269.83;110209;1264;17834;-38
2023/10/09 09:05:43;;;;;;;;;2.00;2.00;;;;;22.88;44.07;101268.08;110221;1250;20141;-37
2023/10/09 09:08:17;;;;;;;;;4.00;2.00;;;;;22.88;43.93;101268.29;110207;1264;18220;-38
2023/10/09 09:10:46;;;;;;;;;1.00;1.00;;;;;22.88;43.81;101262.50;110264;1250;20963;-38
2023/10/09 09:13:15;;;;;;;;;2.00;2.00;;;;;22.87;43.91;101254.63;110274;1259;19731;-37
2023/10/09 09:15:45;;;;;;;;;4.00;2.00;;;;;22.88;43.56;101256.05;110280;1251;19665;-35
2023/10/09 09:18:17;;;;;;;;;3.00;2.00;;;;;22.88;43.74;101257.15;110279;1251;19314;-36
2023/10/09 09:20:46;;;;;;;;;2.00;2.00;;;;;22.88;43.54;101253.42;110272;1264;21819;-36
2023/10/09 09:23:13;;;;;;;;;2.00;2.00;;;;;22.88;43.31;101250.05;110264;1251;19615;-36
2023/10/09 09:25:43;;;;;;;;;2.00;2.00;;;;;22.89;43.20;101255.23;110288;1259;19059;-36
2023/10/09 09:28:12;;;;;;;;;2.00;2.00;;;;;22.87;43.36;101249.45;110293;1264;18378;-36
2023/10/09 09:30:40;;;;;;;;;4.00;2.00;;;;;22.84;43.49;101250.48;110291;1250;18272;-36
2023/10/09 09:33:20;;;;;;;;;2.00;2.00;;;;;22.84;43.44;101246.70;110272;1251;19267;-36
2023/10/09 09:35:47;;;;;;;;;2.00;2.00;;;;;22.82;43.65;101247.95;110296;1265;19299;-35
2023/10/09 09:38:17;;;;;;;;;2.00;2.00;;;;;22.81;43.91;101242.00;110253;1250;18992;-37
2023/10/09 09:40:44;;;;;;;;;4.00;2.00;;;;;22.81;44.32;101238.51;110213;1251;19183;-37
2023/10/09 09:43:21;;;;;;;;;2.00;2.00;;;;;22.89;44.14;101239.72;110207;1265;18388;-36
2023/10/09 09:45:49;;;;;;;;;2.00;2.00;;;;;22.87;44.46;101244.80;110221;1251;19711;-37
2023/10/09 09:48:17;;;;;;;;;2.00;2.00;;;;;22.87;45.86;101244.41;110224;1250;21893;-36
2023/10/09 09:50:45;;;;;;;;;1.00;1.00;;;;;22.93;45.67;101248.84;110202;1250;19806;-37
2023/10/09 09:53:16;;;;;;;;;2.00;2.00;;;;;22.96;45.39;101249.50;110223;1251;19638;-37
2023/10/09 09:55:43;;;;;;;;;4.00;3.00;;;;;22.97;45.35;101244.09;110240;1264;21062;-36
2023/10/09 09:58:18;;;;;;;;;2.00;2.00;;;;;22.96;45.26;101243.48;110234;1257;19781;-38
2023/10/09 10:00:52;;;;;;;;;2.00;2.00;;;;;22.95;45.38;101238.46;110194;1251;19673;-37
2023/10/09 10:03:19;;;;;;;;;2.00;2.00;;;;;22.95;45.11;101238.14;110188;1251;19219;-37
2023/10/09 10:05:48;;;;;;;;;3.00;3.00;;;;;22.95;45.22;101237.05;110265;1250;19879;-37
2023/10/09 10:08:19;;;;;;;;;4.00;4.00;;;;;22.93;45.51;101239.23;110210;1251;19644;-37
2023/10/09 10:10:52;;;;;;;;;4.00;4.00;;;;;22.89;45.54;101236.11;110214;1251;19199;-37
2023/10/09 10:13:27;;;;;;;;;2.00;2.00;;;;;22.90;45.36;101235.13;110206;1250;19831;-37
2023/10/09 10:15:56;;;;;;;;;4.00;2.00;;;;;22.89;45.15;101231.63;110269;1250;19719;-37
2023/10/09 10:18:24;;;;;;;;;4.00;2.00;;;;;22.91;45.08;101239.06;110189;1250;19217;-37
2023/10/09 10:20:51;;;;;;;;;4.67;4.67;;;;;22.92;45.06;101242.67;110169;1251;21057;-37
2023/10/09 10:23:19;;;;;;;;;2.00;2.00;;;;;22.91;45.34;101238.20;110193;1266;18595;-37
2023/10/09 10:25:49;;;;;;;;;2.00;2.00;;;;;22.97;46.18;101234.31;110136;1250;19718;-37
2023/10/09 10:28:28;;;;;;;;;2.00;2.00;;;;;23.00;46.15;101224.70;110147;1266;21592;-37
2023/10/09 10:30:55;;;;;;;;;4.00;4.00;;;;;22.97;46.29;101218.30;110186;1250;20551;-37
2023/10/09 10:33:24;;;;;;;;;4.00;4.00;;;;;22.95;46.14;101212.45;110230;1259;17822;-38
2023/10/09 10:35:54;;;;;;;;;2.00;2.00;;;;;22.98;45.79;101209.29;110168;1265;19346;-37
2023/10/09 10:38:22;;;;;;;;;5.00;4.00;;;;;22.97;45.81;101205.08;110202;1253;19757;-38
2023/10/09 10:40:56;;;;;;;;;2.00;2.00;;;;;22.95;45.70;101212.67;110207;1252;19297;-37
2023/10/09 10:43:32;;;;;;;;;2.00;2.00;;;;;22.98;45.73;101209.52;110204;1259;19867;-37
2023/10/09 10:45:59;;;;;;;;;4.00;4.00;;;;;22.90;45.93;101211.91;110210;1250;19646;-37
2023/10/09 10:48:37;;;;;;;;;2.00;2.00;;;;;22.96;45.82;101204.27;110153;1253;19246;-37
2023/10/09 10:51:05;;;;;;;;;3.00;3.00;;;;;22.93;45.73;101209.51;110249;1265;18932;-37
2023/10/09 10:53:47;;;;;;;;;2.00;2.00;;;;;22.98;45.22;101200.38;110204;1251;19666;-37
2023/10/09 10:56:18;;;;;;;;;4.00;4.00;;;;;23.01;45.59;101198.08;110147;1253;19858;-37
2023/10/09 10:59:11;;;;;;;;;2.00;2.00;;;;;22.96;45.55;101202.79;110171;1250;22395;-36
2023/10/09 11:01:52;;;;;;;;;6.00;5.00;;;;;22.97;45.14;101197.98;110130;1251;19686;-37
2023/10/09 11:04:38;;;;;;;;;4.00;2.00;;;;;22.98;45.21;101194.20;110109;1262;19341;-36
2023/10/09 11:07:09;;;;;;;;;2.00;2.00;;;;;23.05;45.19;101185.73;110219;1265;20005;-38
2023/10/09 11:09:37;;;;;;;;;5.00;4.00;;;;;23.03;45.04;101185.45;110205;1259;19555;-38
2023/10/09 11:12:12;;;;;;;;;2.00;2.00;;;;;22.99;45.40;101184.48;110171;1266;21817;-38
2023/10/09 11:14:45;;;;;;;;;4.00;2.00;;;;;23.01;45.26;101181.25;110201;1250;20056;-37
2023/10/09 11:17:23;;;;;;;;;4.00;2.00;;;;;23.02;45.45;101181.91;110166;1253;21920;-38
2023/10/09 11:19:52;;;;;;;;;2.00;2.00;;;;;23.02;45.19;101180.38;110163;1250;22330;-37
2023/10/09 11:22:28;;;;;;;;;5.00;4.00;;;;;23.00;45.23;101178.73;110217;1252;19966;-37
2023/10/09 11:25:11;;;;;;;;;2.00;2.00;;;;;23.01;45.33;101177.70;110186;1265;20594;-37
2023/10/09 11:27:40;;;;;;;;;5.67;4.67;;;;;22.99;45.21;101175.73;110199;1250;19383;-38
2023/10/09 11:30:32;;;;;;;;;2.00;2.00;;;;;22.96;45.37;101168.25;110190;1250;19961;-38
2023/10/09 11:32:55;;;;;;;;;2.00;2.00;;;;;22.97;45.20;101169.51;110187;1250;20520;-37
2023/10/09 11:35:28;;;;;;;;;5.00;4.00;;;;;22.98;45.24;101166.23;110194;1265;17948;-38
2023/10/09 11:37:55;;;;;;;;;1.00;1.00;;;;;22.93;45.48;101164.75;110204;1253;19993;-36
2023/10/09 11:40:24;;;;;;;;;1.00;1.00;;;;;22.92;45.68;101159.13;110164;1266;19620;-38
2023/10/09 11:42:57;;;;;;;;;1.67;1.67;;;;;22.92;45.21;101158.75;110235;1259;19227;-38
2023/10/09 11:45:28;;;;;;;;;2.00;2.00;;;;;22.98;45.28;101161.80;110217;1250;19839;-38
2023/10/09 11:47:58;;;;;;;;;2.00;2.00;;;;;22.96;44.96;101162.84;110216;1248;20738;-38
2023/10/09 11:50:30;;;;;;;;;2.00;1.50;;;;;22.93;45.23;101163.28;110207;1257;17917;-37
2023/10/09 11:53:09;;;;;;;;;2.00;2.00;;;;;22.92;45.14;101163.39;110203;1251;20143;-37
2023/10/09 11:55:37;;;;;;;;;2.00;2.00;;;;;22.95;44.78;101164.32;110204;1264;18194;-37
2023/10/09 11:58:06;;;;;;;;;4.00;4.00;;;;;22.94;45.01;101168.25;110214;1251;19319;-37
2023/10/09 12:00:44;;;;;;;;;1.00;1.00;;;;;22.92;44.90;101162.52;110222;1250;21892;-37
2023/10/09 12:03:13;;;;;;;;;2.00;2.00;;;;;22.96;44.57;101162.89;110177;1249;19625;-38
2023/10/09 12:05:44;;;;;;;;;2.00;2.00;;;;;22.95;44.68;101163.60;110221;1264;21949;-37
2023/10/09 12:08:14;;;;;;;;;2.00;2.00;;;;;22.92;44.83;101162.08;110245;1257;20276;-36
2023/10/09 12:10:41;;;;;;;;;2.00;2.00;;;;;22.93;44.80;101156.95;110243;1264;18205;-36
2023/10/09 12:13:08;;;;;;;;;2.00;2.00;;;;;22.93;44.53;101150.71;110243;1251;19306;-36
2023/10/09 12:15:38;;;;;;;;;2.00;2.00;;;;;22.95;44.55;101150.61;110210;1264;18939;-37
2023/10/09 12:18:09;;;;;;;;;4.00;2.00;;;;;22.96;44.53;101146.29;110205;1251;21260;-36
2023/10/09 12:20:36;;;;;;;;;1.00;1.00;;;;;22.92;44.66;101142.15;110154;1259;19511;-37
2023/10/09 12:23:04;;;;;;;;;4.00;2.00;;;;;22.93;44.37;101141.38;110183;1264;21747;-37
2023/10/09 12:25:31;;;;;;;;;2.00;2.00;;;;;22.92;44.60;101140.61;110256;1251;19662;-36
2023/10/09 12:28:01;;;;;;;;;2.00;2.00;;;;;22.90;44.41;101133.34;110210;1264;19068;-37
2023/10/09 12:30:28;;;;;;;;;2.00;2.00;;;;;22.93;44.41;101129.67;110176;1264;18569;-37
2023/10/09 12:32:57;;;;;;;;;2.00;2.00;;;;;22.96;44.25;101122.69;110207;1261;19832;-37
2023/10/09 12:35:24;;;;;;;;;2.00;2.00;;;;;22.97;44.29;101116.99;110195;1264;17955;-37
2023/10/09 12:37:52;;;;;;;;;2.00;2.00;;;;;22.95;44.57;101115.09;110225;1250;19931;-38